Αναφορές METAR Αεροδρομίων

 

LGTS - THESSALONIKI - GREECE
Ενημερώθηκε: 17/07/2024 22:20
Αίθριος
Αίθριος
 Ανεμος από ΑΝΑ
Ανεμος: ΑΝΑ 7 km/h
Θερμοκρασία: 32°C
Σημ. Δρόσου: 15°C
Υγρασία: 36%
Βαρόμετρο: 1011 hPa
Περίληψη: Αίθριος
Visibility: greater than 10 km
2024/07/17 19:20 LGTS 171920Z 11004KT CAVOK 32/15 Q1011 NOSIG
LGLR - LARTISA - GREECE
Ενημερώθηκε: 17/07/2024 21:50
Αίθριος
Αίθριος
 Ανεμος από calm
Ανεμος: Απνοια
Θερμοκρασία: 31°C
Σημ. Δρόσου: 12°C
Υγρασία: 31%
Βαρόμετρο: 1011 hPa
Περίληψη: Αίθριος
Visibility: greater than 10 km
2024/07/17 18:50 LGLR 171850Z 00000KT CAVOK 31/12 Q1011 BLU
 
LGKZ - KOZANI - GREECE
Ενημερώθηκε: 17/07/2024 22:20

 Ανεμος από Β
Ανεμος: Β 9 km/h
Θερμοκρασία: 26°C
Σημ. Δρόσου: 8°C
Υγρασία: 32%
Βαρόμετρο: 1017 hPa
2024/07/17 19:20 LGKZ 171920Z AUTO 36005KT //// // ////// 26/08 Q1017 RE//
LGKV - KAVALA - GREECE
Ενημερώθηκε: 17/07/2024 22:20
Αραιές Νεφώσεις
Αραιές Νεφώσεις
 Ανεμος από calm
Ανεμος: Απνοια
Θερμοκρασία: 28°C
Δείκτης θερμότητας: 29°C
Σημ. Δρόσου: 20°C
Υγρασία: 62%
Βαρόμετρο: 1011 hPa
Clouds: Αραιές Νεφώσεις
Visibility: 10 km
Cloud details: Αραιές Νεφώσεις 610 m
2024/07/17 19:20 LGKV 171920Z 00000KT 9999 FEW020 28/20 Q1011
 
LGIO - IOANNINA - GREECE
Ενημερώθηκε: 17/07/2024 22:20
Αραιές Νεφώσεις
Αραιές Νεφώσεις
 Ανεμος από Β
Ανεμος: Β 6 km/h
Θερμοκρασία: 27°C
Δείκτης θερμότητας: 27°C
Σημ. Δρόσου: 15°C
Υγρασία: 48%
Βαρόμετρο: 1015 hPa
Clouds: Αραιές Νεφώσεις
Visibility: 10 km
Cloud details: Αραιές Νεφώσεις 1524 m
2024/07/17 19:20 LGIO 171920Z 01003KT 9999 FEW050 27/15 Q1015
LGBL - BOLOS - GREECE
Ενημερώθηκε: 17/07/2024 21:50
Αίθριος
Αίθριος
 Ανεμος από calm
Ανεμος: Απνοια
Θερμοκρασία: 30°C
Δείκτης θερμότητας: 30°C
Σημ. Δρόσου: 16°C
Υγρασία: 43%
Βαρόμετρο: 1011 hPa
Περίληψη: Αίθριος
Visibility: greater than 10 km
2024/07/17 18:50 LGBL 171850Z 00000KT CAVOK 30/16 Q1011
 
LGMT - MITILINI - GREECE
Ενημερώθηκε: 17/07/2024 22:20
Αίθριος
Αίθριος
 Ανεμος από Β
Ανεμος: Β 19 km/h
Θερμοκρασία: 28°C
Δείκτης θερμότητας: 29°C
Σημ. Δρόσου: 19°C
Υγρασία: 58%
Βαρόμετρο: 1008 hPa
Περίληψη: Αίθριος
Visibility: greater than 10 km
2024/07/17 19:20 LGMT 171920Z 35010KT 260V360 CAVOK 28/19 Q1008
LGAV - ATHENS - GREECE
Ενημερώθηκε: 17/07/2024 22:20
Αίθριος
Αίθριος
 Ανεμος από Β
Ανεμος: Β 11 km/h
Θερμοκρασία: 33°C
Σημ. Δρόσου: 12°C
Υγρασία: 28%
Βαρόμετρο: 1011 hPa
Περίληψη: Αίθριος
Visibility: greater than 10 km
2024/07/17 19:20 LGAV 171920Z 35006KT CAVOK 33/12 Q1011 NOSIG
 
LGRP - RODOS - GREECE
Ενημερώθηκε: 17/07/2024 22:20
Αίθριος
Αίθριος
 Ανεμος από ΝΔ
Ανεμος: ΝΔ 26 km/h
Θερμοκρασία: 29°C
Δείκτης θερμότητας: 31°C
Σημ. Δρόσου: 21°C
Υγρασία: 62%
Βαρόμετρο: 1006 hPa
Περίληψη: Αίθριος
Visibility: greater than 10 km
2024/07/17 19:20 LGRP 171920Z 23014KT CAVOK 29/21 Q1006 NOSIG
LGIR - HRAKLIO/KRITI - GREECE
Ενημερώθηκε: 17/07/2024 22:20
Αίθριος
Αίθριος
 Ανεμος από varies
Ανεμος: varies 6 km/h
Θερμοκρασία: 28°C
Δείκτης θερμότητας: 29°C
Σημ. Δρόσου: 20°C
Υγρασία: 62%
Βαρόμετρο: 1010 hPa
Περίληψη: Αίθριος
Visibility: greater than 10 km
2024/07/17 19:20 LGIR 171920Z VRB03KT CAVOK 28/20 Q1010 NOSIG
 
LGMK - MIKONOS - GREECE
Ενημερώθηκε: 17/07/2024 22:20
Αίθριος
Αίθριος
 Ανεμος από ΒΒΑ
Ανεμος: ΒΒΑ 20 km/h
Θερμοκρασία: 27°C
Δείκτης θερμότητας: 28°C
Σημ. Δρόσου: 17°C
Υγρασία: 54%
Βαρόμετρο: 1010 hPa
Περίληψη: Αίθριος
Visibility: greater than 10 km
2024/07/17 19:20 LGMK 171920Z 02011KT CAVOK 27/17 Q1010
LGKR - KERKIRA - GREECE
Ενημερώθηκε: 17/07/2024 22:20
Αραιές Νεφώσεις
Αραιές Νεφώσεις
 Ανεμος από varies
Ανεμος: varies 6 km/h
Θερμοκρασία: 31°C
Δείκτης θερμότητας: 38°C
Σημ. Δρόσου: 25°C
Υγρασία: 70%
Βαρόμετρο: 1011 hPa
Clouds: Αραιές Νεφώσεις
Visibility: 10 km
Cloud details: Αραιές Νεφώσεις 914 m
2024/07/17 19:20 LGKR 171920Z VRB03KT 9999 FEW030 31/25 Q1011 NOSIG